sensor_id;sensor_type;location;lat;lon;timestamp;pressure;altitude;pressure_sealevel;temperature;humidity
54556;BME280;57291;37.520;15.106;2023-10-19T00:01:16;101090.44;;;22.23;100.00
54556;BME280;57291;37.520;15.106;2023-10-19T00:03:45;101074.56;;;22.20;100.00
54556;BME280;57291;37.520;15.106;2023-10-19T00:06:12;101080.91;;;22.21;100.00
54556;BME280;57291;37.520;15.106;2023-10-19T00:08:39;101076.13;;;22.18;100.00
54556;BME280;57291;37.520;15.106;2023-10-19T00:11:10;101071.72;;;22.17;100.00
54556;BME280;57291;37.520;15.106;2023-10-19T00:13:48;101070.47;;;22.14;100.00
54556;BME280;57291;37.520;15.106;2023-10-19T00:16:17;101067.28;;;22.12;100.00
54556;BME280;57291;37.520;15.106;2023-10-19T00:18:49;101073.97;;;22.11;100.00
54556;BME280;57291;37.520;15.106;2023-10-19T00:21:17;101064.84;;;22.11;100.00
54556;BME280;57291;37.520;15.106;2023-10-19T00:23:54;101058.09;;;22.08;100.00
54556;BME280;57291;37.520;15.106;2023-10-19T00:26:26;101060.03;;;22.08;100.00
54556;BME280;57291;37.520;15.106;2023-10-19T00:29:00;101060.44;;;22.06;100.00
54556;BME280;57291;37.520;15.106;2023-10-19T00:31:41;101057.66;;;22.06;100.00
54556;BME280;57291;37.520;15.106;2023-10-19T00:34:08;101052.50;;;22.05;100.00
54556;BME280;57291;37.520;15.106;2023-10-19T00:36:35;101044.56;;;22.03;100.00
54556;BME280;57291;37.520;15.106;2023-10-19T00:39:06;101041.78;;;22.03;100.00
54556;BME280;57291;37.520;15.106;2023-10-19T00:41:42;101039.41;;;22.01;100.00
54556;BME280;57291;37.520;15.106;2023-10-19T00:44:11;101036.19;;;21.99;100.00
54556;BME280;57291;37.520;15.106;2023-10-19T00:46:39;101032.97;;;21.97;100.00
54556;BME280;57291;37.520;15.106;2023-10-19T00:49:07;101019.50;;;21.96;100.00
54556;BME280;57291;37.520;15.106;2023-10-19T00:51:38;101019.06;;;21.94;100.00
54556;BME280;57291;37.520;15.106;2023-10-19T00:54:23;101019.06;;;21.94;100.00
54556;BME280;57291;37.520;15.106;2023-10-19T00:57:17;101019.88;;;21.94;100.00
54556;BME280;57291;37.520;15.106;2023-10-19T00:59:49;101026.28;;;21.98;100.00
54556;BME280;57291;37.520;15.106;2023-10-19T01:02:21;101020.31;;;21.96;100.00
54556;BME280;57291;37.520;15.106;2023-10-19T01:04:53;101014.31;;;21.94;100.00
54556;BME280;57291;37.520;15.106;2023-10-19T01:07:23;101013.47;;;21.90;100.00
54556;BME280;57291;37.520;15.106;2023-10-19T01:09:51;100997.25;;;21.89;100.00
54556;BME280;57291;37.520;15.106;2023-10-19T01:12:21;100998.31;;;21.84;100.00
54556;BME280;57291;37.520;15.106;2023-10-19T01:15:11;100996.28;;;21.81;100.00
54556;BME280;57291;37.520;15.106;2023-10-19T01:17:47;100995.50;;;21.81;100.00
54556;BME280;57291;37.520;15.106;2023-10-19T01:20:27;100987.91;;;21.77;100.00
54556;BME280;57291;37.520;15.106;2023-10-19T01:23:02;100988.28;;;21.76;100.00
54556;BME280;57291;37.520;15.106;2023-10-19T01:25:52;100985.88;;;21.74;100.00
54556;BME280;57291;37.520;15.106;2023-10-19T01:28:36;100979.94;;;21.72;100.00
54556;BME280;57291;37.520;15.106;2023-10-19T01:31:20;100985.00;;;21.70;100.00
54556;BME280;57291;37.520;15.106;2023-10-19T01:33:59;100987.06;;;21.73;100.00
54556;BME280;57291;37.520;15.106;2023-10-19T01:36:34;100986.59;;;21.71;100.00
54556;BME280;57291;37.520;15.106;2023-10-19T01:39:22;100978.69;;;21.70;100.00
54556;BME280;57291;37.520;15.106;2023-10-19T01:41:53;100985.38;;;21.69;100.00
54556;BME280;57291;37.520;15.106;2023-10-19T01:44:20;100979.03;;;21.68;100.00
54556;BME280;57291;37.520;15.106;2023-10-19T01:46:48;100985.75;;;21.67;100.00
54556;BME280;57291;37.520;15.106;2023-10-19T01:49:15;100981.78;;;21.68;100.00
54556;BME280;57291;37.520;15.106;2023-10-19T01:51:53;100977.81;;;21.66;100.00
54556;BME280;57291;37.520;15.106;2023-10-19T01:54:22;100982.97;;;21.67;100.00
54556;BME280;57291;37.520;15.106;2023-10-19T01:56:55;100974.25;;;21.65;100.00
54556;BME280;57291;37.520;15.106;2023-10-19T01:59:28;100979.34;;;21.63;100.00
54556;BME280;57291;37.520;15.106;2023-10-19T02:01:57;100976.56;;;21.63;100.00
54556;BME280;57291;37.520;15.106;2023-10-19T02:04:25;100974.53;;;21.60;100.00
54556;BME280;57291;37.520;15.106;2023-10-19T02:06:53;100980.44;;;21.59;100.00
54556;BME280;57291;37.520;15.106;2023-10-19T02:09:20;100975.63;;;21.56;100.00
54556;BME280;57291;37.520;15.106;2023-10-19T02:11:54;100974.41;;;21.53;100.00
54556;BME280;57291;37.520;15.106;2023-10-19T02:14:27;100975.13;;;21.50;100.00
54556;BME280;57291;37.520;15.106;2023-10-19T02:17:00;100965.97;;;21.46;100.00
54556;BME280;57291;37.520;15.106;2023-10-19T02:19:30;100968.66;;;21.42;100.00
54556;BME280;57291;37.520;15.106;2023-10-19T02:22:02;100968.53;;;21.39;100.00
54556;BME280;57291;37.520;15.106;2023-10-19T02:24:38;100966.16;;;21.37;100.00
54556;BME280;57291;37.520;15.106;2023-10-19T02:27:09;100964.91;;;21.35;100.00
54556;BME280;57291;37.520;15.106;2023-10-19T02:29:48;100965.38;;;21.37;100.00
54556;BME280;57291;37.520;15.106;2023-10-19T02:32:17;100959.72;;;21.33;100.00
54556;BME280;57291;37.520;15.106;2023-10-19T02:34:46;100960.47;;;21.30;100.00
54556;BME280;57291;37.520;15.106;2023-10-19T02:37:13;100965.19;;;21.29;100.00
54556;BME280;57291;37.520;15.106;2023-10-19T02:39:41;100963.56;;;21.28;100.00
54556;BME280;57291;37.520;15.106;2023-10-19T02:42:10;100952.44;;;21.25;100.00
54556;BME280;57291;37.520;15.106;2023-10-19T02:44:37;100959.13;;;21.24;100.00
54556;BME280;57291;37.520;15.106;2023-10-19T02:47:05;100957.53;;;21.23;100.00
54556;BME280;57291;37.520;15.106;2023-10-19T02:49:36;100949.53;;;21.18;100.00
54556;BME280;57291;37.520;15.106;2023-10-19T02:52:06;100957.47;;;21.19;100.00
54556;BME280;57291;37.520;15.106;2023-10-19T02:54:34;100955.78;;;21.15;100.00
54556;BME280;57291;37.520;15.106;2023-10-19T02:57:02;100962.47;;;21.14;100.00
54556;BME280;57291;37.520;15.106;2023-10-19T02:59:35;100956.88;;;21.10;100.00
54556;BME280;57291;37.520;15.106;2023-10-19T03:02:03;100948.91;;;21.08;100.00
54556;BME280;57291;37.520;15.106;2023-10-19T03:04:40;100955.63;;;21.07;100.00
54556;BME280;57291;37.520;15.106;2023-10-19T03:07:12;100954.38;;;21.05;100.00
54556;BME280;57291;37.520;15.106;2023-10-19T03:09:40;100948.84;;;21.05;100.00
54556;BME280;57291;37.520;15.106;2023-10-19T03:12:16;100956.34;;;21.04;100.00
54556;BME280;57291;37.520;15.106;2023-10-19T03:14:44;100949.56;;;21.02;100.00
54556;BME280;57291;37.520;15.106;2023-10-19T03:17:15;100952.25;;;20.98;100.00
54556;BME280;57291;37.520;15.106;2023-10-19T03:19:43;100950.19;;;20.95;100.00
54556;BME280;57291;37.520;15.106;2023-10-19T03:22:11;100947.03;;;20.93;100.00
54556;BME280;57291;37.520;15.106;2023-10-19T03:24:39;100944.59;;;20.92;100.00
54556;BME280;57291;37.520;15.106;2023-10-19T03:27:12;100944.91;;;20.87;100.00
54556;BME280;57291;37.520;15.106;2023-10-19T03:29:41;100955.50;;;20.84;100.00
54556;BME280;57291;37.520;15.106;2023-10-19T03:32:13;100950.69;;;20.81;100.00
54556;BME280;57291;37.520;15.106;2023-10-19T03:34:41;100950.22;;;20.79;100.00
54556;BME280;57291;37.520;15.106;2023-10-19T03:37:14;100948.63;;;20.78;100.00
54556;BME280;57291;37.520;15.106;2023-10-19T03:39:42;100949.00;;;20.77;100.00
54556;BME280;57291;37.520;15.106;2023-10-19T03:42:12;100950.16;;;20.76;100.00
54556;BME280;57291;37.520;15.106;2023-10-19T03:44:43;100948.22;;;20.76;100.00
54556;BME280;57291;37.520;15.106;2023-10-19T03:47:17;100940.28;;;20.75;100.00
54556;BME280;57291;37.520;15.106;2023-10-19T03:49:48;100945.34;;;20.73;100.00
54556;BME280;57291;37.520;15.106;2023-10-19T03:52:18;100940.66;;;20.73;100.00
54556;BME280;57291;37.520;15.106;2023-10-19T03:54:47;100940.28;;;20.75;100.00
54556;BME280;57291;37.520;15.106;2023-10-19T03:57:17;100941.06;;;20.75;100.00
54556;BME280;57291;37.520;15.106;2023-10-19T03:59:52;100936.78;;;20.78;100.00
54556;BME280;57291;37.520;15.106;2023-10-19T04:02:27;100932.59;;;20.84;100.00
54556;BME280;57291;37.520;15.106;2023-10-19T04:04:56;100938.66;;;20.90;100.00
54556;BME280;57291;37.520;15.106;2023-10-19T04:07:24;100934.19;;;20.85;100.00
54556;BME280;57291;37.520;15.106;2023-10-19T04:09:58;100937.75;;;20.85;100.00
54556;BME280;57291;37.520;15.106;2023-10-19T04:12:36;100933.41;;;20.84;100.00
54556;BME280;57291;37.520;15.106;2023-10-19T04:15:05;100936.06;;;20.81;100.00
54556;BME280;57291;37.520;15.106;2023-10-19T04:17:44;100937.50;;;20.75;100.00
54556;BME280;57291;37.520;15.106;2023-10-19T04:20:14;100930.75;;;20.72;100.00
54556;BME280;57291;37.520;15.106;2023-10-19T04:22:48;100941.06;;;20.75;100.00
54556;BME280;57291;37.520;15.106;2023-10-19T04:25:19;100936.56;;;20.67;100.00
54556;BME280;57291;37.520;15.106;2023-10-19T04:27:48;100930.25;;;20.67;100.00
54556;BME280;57291;37.520;15.106;2023-10-19T04:30:16;100933.63;;;20.60;100.00
54556;BME280;57291;37.520;15.106;2023-10-19T04:32:44;100933.81;;;20.51;100.00
54556;BME280;57291;37.520;15.106;2023-10-19T04:35:12;100930.94;;;20.48;100.00
54556;BME280;57291;37.520;15.106;2023-10-19T04:37:41;100933.16;;;20.42;100.00
54556;BME280;57291;37.520;15.106;2023-10-19T04:40:10;100942.78;;;20.32;100.00
54556;BME280;57291;37.520;15.106;2023-10-19T04:42:38;100938.66;;;20.26;100.00
54556;BME280;57291;37.520;15.106;2023-10-19T04:45:06;100941.34;;;20.23;100.00
54556;BME280;57291;37.520;15.106;2023-10-19T04:47:33;100941.25;;;20.19;100.00
54556;BME280;57291;37.520;15.106;2023-10-19T04:50:05;100940.69;;;20.13;100.00
54556;BME280;57291;37.520;15.106;2023-10-19T04:52:33;100942.66;;;20.13;100.00
54556;BME280;57291;37.520;15.106;2023-10-19T04:55:00;100942.31;;;20.14;100.00
54556;BME280;57291;37.520;15.106;2023-10-19T04:57:28;100941.97;;;20.16;100.00
54556;BME280;57291;37.520;15.106;2023-10-19T04:59:56;100944.72;;;20.16;100.00
54556;BME280;57291;37.520;15.106;2023-10-19T05:02:24;100942.75;;;20.17;100.00
54556;BME280;57291;37.520;15.106;2023-10-19T05:04:51;100945.50;;;20.17;100.00
54556;BME280;57291;37.520;15.106;2023-10-19T05:07:19;100944.00;;;20.19;100.00
54556;BME280;57291;37.520;15.106;2023-10-19T05:09:46;100945.97;;;20.19;100.00
54556;BME280;57291;37.520;15.106;2023-10-19T05:12:14;100944.81;;;20.20;100.00
54556;BME280;57291;37.520;15.106;2023-10-19T05:14:42;100948.03;;;20.22;100.00
54556;BME280;57291;37.520;15.106;2023-10-19T05:17:10;100943.31;;;20.22;100.00
54556;BME280;57291;37.520;15.106;2023-10-19T05:19:39;100949.63;;;20.23;100.00
54556;BME280;57291;37.520;15.106;2023-10-19T05:22:08;100948.56;;;20.27;100.00
54556;BME280;57291;37.520;15.106;2023-10-19T05:24:36;100945.53;;;20.32;100.00
54556;BME280;57291;37.520;15.106;2023-10-19T05:27:03;100948.91;;;20.42;100.00
54556;BME280;57291;37.520;15.106;2023-10-19T05:29:31;100943.75;;;20.56;100.00
54556;BME280;57291;37.520;15.106;2023-10-19T05:32:03;100945.78;;;20.75;100.00
54556;BME280;57291;37.520;15.106;2023-10-19T05:34:31;100946.94;;;20.90;100.00
54556;BME280;57291;37.520;15.106;2023-10-19T05:37:02;100944.63;;;21.11;100.00
54556;BME280;57291;37.520;15.106;2023-10-19T05:39:32;100949.13;;;21.35;100.00
54556;BME280;57291;37.520;15.106;2023-10-19T05:42:00;100949.38;;;21.65;100.00
54556;BME280;57291;37.520;15.106;2023-10-19T05:44:29;100961.97;;;22.05;100.00
54556;BME280;57291;37.520;15.106;2023-10-19T05:46:58;100955.47;;;22.40;100.00
54556;BME280;57291;37.520;15.106;2023-10-19T05:49:26;100950.88;;;22.74;100.00
54556;BME280;57291;37.520;15.106;2023-10-19T05:51:57;100957.03;;;23.13;100.00
54556;BME280;57291;37.520;15.106;2023-10-19T05:54:26;100965.47;;;23.54;100.00
54556;BME280;57291;37.520;15.106;2023-10-19T05:56:54;100963.97;;;23.94;100.00
54556;BME280;57291;37.520;15.106;2023-10-19T05:59:21;100972.06;;;24.10;94.94
54556;BME280;57291;37.520;15.106;2023-10-19T06:01:50;100966.38;;;24.40;93.39
54556;BME280;57291;37.520;15.106;2023-10-19T06:04:18;100973.00;;;24.69;92.29
54556;BME280;57291;37.520;15.106;2023-10-19T06:06:47;100969.66;;;25.04;89.33
54556;BME280;57291;37.520;15.106;2023-10-19T06:09:16;100982.59;;;25.41;87.72
54556;BME280;57291;37.520;15.106;2023-10-19T06:11:45;100975.97;;;25.74;86.11
54556;BME280;57291;37.520;15.106;2023-10-19T06:14:12;100988.38;;;26.06;82.61
54556;BME280;57291;37.520;15.106;2023-10-19T06:16:40;100992.00;;;26.17;80.96
54556;BME280;57291;37.520;15.106;2023-10-19T06:19:08;100988.03;;;26.22;78.49
54556;BME280;57291;37.520;15.106;2023-10-19T06:21:36;100988.44;;;26.24;78.60
54556;BME280;57291;37.520;15.106;2023-10-19T06:24:03;100983.66;;;26.13;77.92
54556;BME280;57291;37.520;15.106;2023-10-19T06:26:31;100986.69;;;25.76;79.90
54556;BME280;57291;37.520;15.106;2023-10-19T06:28:58;100983.16;;;25.86;78.01
54556;BME280;57291;37.520;15.106;2023-10-19T06:31:27;100987.66;;;26.41;78.59
54556;BME280;57291;37.520;15.106;2023-10-19T06:33:57;100995.25;;;26.76;77.19
54556;BME280;57291;37.520;15.106;2023-10-19T06:36:25;100990.81;;;27.00;75.20
54556;BME280;57291;37.520;15.106;2023-10-19T06:38:52;101004.69;;;27.40;73.56
54556;BME280;57291;37.520;15.106;2023-10-19T06:41:22;100993.91;;;27.49;71.41
54556;BME280;57291;37.520;15.106;2023-10-19T06:43:49;100993.81;;;27.67;68.15
54556;BME280;57291;37.520;15.106;2023-10-19T06:46:17;100994.31;;;27.44;67.59
54556;BME280;57291;37.520;15.106;2023-10-19T06:48:44;100992.41;;;27.08;66.32
54556;BME280;57291;37.520;15.106;2023-10-19T06:51:12;100992.00;;;27.17;67.60
54556;BME280;57291;37.520;15.106;2023-10-19T06:53:39;100992.41;;;27.05;67.82
54556;BME280;57291;37.520;15.106;2023-10-19T06:56:06;100990.00;;;27.18;68.01
54556;BME280;57291;37.520;15.106;2023-10-19T06:58:34;101001.88;;;27.43;67.18
54556;BME280;57291;37.520;15.106;2023-10-19T07:01:07;100993.50;;;27.47;65.75
54556;BME280;57291;37.520;15.106;2023-10-19T07:03:35;100997.91;;;27.41;65.38
54556;BME280;57291;37.520;15.106;2023-10-19T07:06:04;100997.94;;;27.30;65.47
54556;BME280;57291;37.520;15.106;2023-10-19T07:08:37;100992.38;;;27.26;66.68
54556;BME280;57291;37.520;15.106;2023-10-19T07:11:04;101000.34;;;27.35;65.06
54556;BME280;57291;37.520;15.106;2023-10-19T07:13:32;100995.84;;;27.59;64.87
54556;BME280;57291;37.520;15.106;2023-10-19T07:16:02;101004.63;;;27.54;65.27
54556;BME280;57291;37.520;15.106;2023-10-19T07:18:31;101002.31;;;27.42;65.06
54556;BME280;57291;37.520;15.106;2023-10-19T07:20:58;101002.31;;;27.38;64.75
54556;BME280;57291;37.520;15.106;2023-10-19T07:23:32;100996.00;;;27.16;64.87
54556;BME280;57291;37.520;15.106;2023-10-19T07:26:00;100999.59;;;26.92;65.56
54556;BME280;57291;37.520;15.106;2023-10-19T07:28:27;101002.00;;;26.64;66.60
54556;BME280;57291;37.520;15.106;2023-10-19T07:30:55;100999.59;;;26.41;67.12
54556;BME280;57291;37.520;15.106;2023-10-19T07:33:23;100997.16;;;26.04;67.95
54556;BME280;57291;37.520;15.106;2023-10-19T07:35:51;100994.38;;;26.01;68.93
54556;BME280;57291;37.520;15.106;2023-10-19T07:38:22;101000.28;;;25.81;68.34
54556;BME280;57291;37.520;15.106;2023-10-19T07:40:50;101003.50;;;25.98;69.10
54556;BME280;57291;37.520;15.106;2023-10-19T07:43:22;101005.09;;;26.06;69.45
54556;BME280;57291;37.520;15.106;2023-10-19T07:45:49;101007.09;;;26.09;68.72
54556;BME280;57291;37.520;15.106;2023-10-19T07:48:17;101003.16;;;26.17;68.36
54556;BME280;57291;37.520;15.106;2023-10-19T07:50:44;101007.09;;;26.09;68.06
54556;BME280;57291;37.520;15.106;2023-10-19T07:53:11;101009.50;;;26.17;67.36
54556;BME280;57291;37.520;15.106;2023-10-19T07:55:39;101000.72;;;25.98;67.77
54556;BME280;57291;37.520;15.106;2023-10-19T07:58:07;101005.50;;;26.08;67.71
54556;BME280;57291;37.520;15.106;2023-10-19T08:00:34;101003.50;;;25.98;67.79
54556;BME280;57291;37.520;15.106;2023-10-19T08:03:03;101003.88;;;25.92;69.09
54556;BME280;57291;37.520;15.106;2023-10-19T08:05:32;101004.31;;;26.09;69.11
54556;BME280;57291;37.520;15.106;2023-10-19T08:08:01;100996.78;;;26.16;68.61
54556;BME280;57291;37.520;15.106;2023-10-19T08:10:31;101003.53;;;26.15;68.86
54556;BME280;57291;37.520;15.106;2023-10-19T08:12:59;100999.16;;;26.18;68.81
54556;BME280;57291;37.520;15.106;2023-10-19T08:15:27;100998.78;;;26.16;68.57
54556;BME280;57291;37.520;15.106;2023-10-19T08:17:57;101005.94;;;26.10;69.19
54556;BME280;57291;37.520;15.106;2023-10-19T08:20:25;100997.53;;;26.03;69.81
54556;BME280;57291;37.520;15.106;2023-10-19T08:22:59;100993.53;;;25.89;70.20
54556;BME280;57291;37.520;15.106;2023-10-19T08:25:29;100995.13;;;25.94;70.74
54556;BME280;57291;37.520;15.106;2023-10-19T08:27:59;100991.16;;;26.02;70.95
54556;BME280;57291;37.520;15.106;2023-10-19T08:30:28;100991.50;;;25.83;73.10
54556;BME280;57291;37.520;15.106;2023-10-19T08:32:55;100988.28;;;25.73;74.57
54556;BME280;57291;37.520;15.106;2023-10-19T08:35:26;100983.56;;;25.85;74.11
54556;BME280;57291;37.520;15.106;2023-10-19T08:37:55;100972.75;;;25.65;74.71
54556;BME280;57291;37.520;15.106;2023-10-19T08:40:26;100973.16;;;25.67;73.94
54556;BME280;57291;37.520;15.106;2023-10-19T08:42:56;100977.47;;;25.50;76.56
54556;BME280;57291;37.520;15.106;2023-10-19T08:45:24;100972.38;;;25.70;77.18
54556;BME280;57291;37.520;15.106;2023-10-19T08:47:58;100978.81;;;25.92;75.38
54556;BME280;57291;37.520;15.106;2023-10-19T08:50:32;100974.06;;;26.00;74.68
54556;BME280;57291;37.520;15.106;2023-10-19T08:53:02;100972.44;;;25.85;75.47
54556;BME280;57291;37.520;15.106;2023-10-19T08:55:30;100975.84;;;25.42;76.84
54556;BME280;57291;37.520;15.106;2023-10-19T08:58:15;100977.72;;;25.20;80.48
54556;BME280;57291;37.520;15.106;2023-10-19T09:00:46;100975.44;;;25.40;79.43
54556;BME280;57291;37.520;15.106;2023-10-19T09:03:22;100972.31;;;25.56;78.73
54556;BME280;57291;37.520;15.106;2023-10-19T09:05:52;100966.81;;;25.78;77.45
54556;BME280;57291;37.520;15.106;2023-10-19T09:08:21;100968.09;;;25.98;76.49
54556;BME280;57291;37.520;15.106;2023-10-19T09:10:50;100970.09;;;26.01;76.26
54556;BME280;57291;37.520;15.106;2023-10-19T09:13:22;100973.28;;;26.10;75.30
54556;BME280;57291;37.520;15.106;2023-10-19T09:15:51;100979.66;;;26.07;75.20
54556;BME280;57291;37.520;15.106;2023-10-19T09:18:25;100977.53;;;25.72;77.90
54556;BME280;57291;37.520;15.106;2023-10-19T09:20:57;100966.34;;;25.54;80.64
54556;BME280;57291;37.520;15.106;2023-10-19T09:23:35;100973.84;;;25.46;80.90
54556;BME280;57291;37.520;15.106;2023-10-19T09:26:04;100978.19;;;25.37;82.50
54556;BME280;57291;37.520;15.106;2023-10-19T09:28:36;100960.69;;;25.33;82.65
54556;BME280;57291;37.520;15.106;2023-10-19T09:31:04;100964.63;;;25.24;84.31
54556;BME280;57291;37.520;15.106;2023-10-19T09:33:33;100956.22;;;25.14;84.89
54556;BME280;57291;37.520;15.106;2023-10-19T09:36:02;100955.09;;;25.22;85.55
54556;BME280;57291;37.520;15.106;2023-10-19T09:38:32;100966.94;;;25.12;87.08
54556;BME280;57291;37.520;15.106;2023-10-19T09:41:00;100953.06;;;25.15;86.71
54556;BME280;57291;37.520;15.106;2023-10-19T09:43:34;100957.78;;;25.11;87.24
54556;BME280;57291;37.520;15.106;2023-10-19T09:46:09;100949.09;;;25.20;88.07
54556;BME280;57291;37.520;15.106;2023-10-19T09:48:45;100953.88;;;25.23;86.78
54556;BME280;57291;37.520;15.106;2023-10-19T09:51:13;100956.31;;;25.28;88.10
54556;BME280;57291;37.520;15.106;2023-10-19T09:56:55;100941.59;;;25.24;89.01
54556;BME280;57291;37.520;15.106;2023-10-19T09:59:35;100944.38;;;25.27;89.16
54556;BME280;57291;37.520;15.106;2023-10-19T10:02:10;100944.41;;;25.31;89.09
54556;BME280;57291;37.520;15.106;2023-10-19T10:04:41;100942.00;;;25.33;88.46
54556;BME280;57291;37.520;15.106;2023-10-19T10:07:09;100939.66;;;25.35;88.79
54556;BME280;57291;37.520;15.106;2023-10-19T10:09:39;100934.88;;;25.39;88.71
54556;BME280;57291;37.520;15.106;2023-10-19T10:12:24;100930.53;;;25.45;88.90
54556;BME280;57291;37.520;15.106;2023-10-19T10:15:04;100923.75;;;25.43;89.46
54556;BME280;57291;37.520;15.106;2023-10-19T10:17:38;100921.00;;;25.46;88.13
54556;BME280;57291;37.520;15.106;2023-10-19T10:22:45;100917.06;;;25.58;88.63
54556;BME280;57291;37.520;15.106;2023-10-19T10:25:25;100915.09;;;25.66;88.82
54556;BME280;57291;37.520;15.106;2023-10-19T10:27:56;100913.91;;;25.67;88.46
54556;BME280;57291;37.520;15.106;2023-10-19T10:30:23;100908.72;;;25.55;88.00
54556;BME280;57291;37.520;15.106;2023-10-19T10:32:52;100912.72;;;25.61;88.75
54556;BME280;57291;37.520;15.106;2023-10-19T10:38:09;100907.13;;;25.57;88.00
54556;BME280;57291;37.520;15.106;2023-10-19T10:40:46;100906.34;;;25.64;88.07
54556;BME280;57291;37.520;15.106;2023-10-19T10:43:19;100894.81;;;25.72;86.91
54556;BME280;57291;37.520;15.106;2023-10-19T10:45:48;100890.06;;;25.69;86.11
54556;BME280;57291;37.520;15.106;2023-10-19T10:48:17;100891.25;;;25.72;88.04
54556;BME280;57291;37.520;15.106;2023-10-19T10:50:46;100880.13;;;25.76;87.98
54556;BME280;57291;37.520;15.106;2023-10-19T10:53:14;100872.97;;;25.71;88.59
54556;BME280;57291;37.520;15.106;2023-10-19T10:55:45;100878.09;;;25.51;88.70
54556;BME280;57291;37.520;15.106;2023-10-19T10:58:16;100874.47;;;25.33;91.30
54556;BME280;57291;37.520;15.106;2023-10-19T11:00:44;100864.88;;;25.23;92.23
54556;BME280;57291;37.520;15.106;2023-10-19T11:03:15;100867.69;;;25.26;92.05
54556;BME280;57291;37.520;15.106;2023-10-19T11:05:43;100860.53;;;25.22;92.11
54556;BME280;57291;37.520;15.106;2023-10-19T11:08:16;100851.41;;;25.29;91.86
54556;BME280;57291;37.520;15.106;2023-10-19T11:10:45;100849.03;;;25.34;92.45
54556;BME280;57291;37.520;15.106;2023-10-19T11:13:17;100851.41;;;25.32;92.53
54556;BME280;57291;37.520;15.106;2023-10-19T11:15:52;100837.16;;;25.52;92.40
54556;BME280;57291;37.520;15.106;2023-10-19T11:18:35;100835.94;;;25.49;92.13
54556;BME280;57291;37.520;15.106;2023-10-19T11:21:07;100837.16;;;25.55;92.27
54556;BME280;57291;37.520;15.106;2023-10-19T11:26:07;100826.44;;;25.54;93.11
54556;BME280;57291;37.520;15.106;2023-10-19T11:28:35;100832.78;;;25.50;92.91
54556;BME280;57291;37.520;15.106;2023-10-19T11:31:15;100827.22;;;25.54;93.76
54556;BME280;57291;37.520;15.106;2023-10-19T11:33:47;100830.38;;;25.49;92.78
54556;BME280;57291;37.520;15.106;2023-10-19T11:36:16;100824.41;;;25.36;93.93
54556;BME280;57291;37.520;15.106;2023-10-19T11:38:51;100822.81;;;25.35;94.53
54556;BME280;57291;37.520;15.106;2023-10-19T11:41:21;100821.59;;;25.22;94.59
54556;BME280;57291;37.520;15.106;2023-10-19T11:43:50;100824.78;;;25.27;95.30
54556;BME280;57291;37.520;15.106;2023-10-19T11:46:17;100815.59;;;25.16;96.71
54556;BME280;57291;37.520;15.106;2023-10-19T11:48:45;100817.97;;;25.11;96.10
54556;BME280;57291;37.520;15.106;2023-10-19T11:51:14;100823.09;;;25.09;97.10
54556;BME280;57291;37.520;15.106;2023-10-19T11:53:42;100820.31;;;25.01;98.31
54556;BME280;57291;37.520;15.106;2023-10-19T11:56:10;100811.19;;;25.04;98.48
54556;BME280;57291;37.520;15.106;2023-10-19T11:58:40;100814.00;;;25.12;98.64
54556;BME280;57291;37.520;15.106;2023-10-19T12:01:10;100816.44;;;25.27;98.12
54556;BME280;57291;37.520;15.106;2023-10-19T12:03:41;100804.91;;;25.29;98.91
54556;BME280;57291;37.520;15.106;2023-10-19T12:06:10;100812.06;;;25.30;98.96
54556;BME280;57291;37.520;15.106;2023-10-19T12:08:39;100804.09;;;25.21;98.38
54556;BME280;57291;37.520;15.106;2023-10-19T12:11:07;100807.63;;;25.08;100.00
54556;BME280;57291;37.520;15.106;2023-10-19T12:13:43;100806.00;;;25.03;100.00
54556;BME280;57291;37.520;15.106;2023-10-19T12:16:11;100798.84;;;24.95;100.00
54556;BME280;57291;37.520;15.106;2023-10-19T12:18:39;100798.44;;;24.96;100.00
54556;BME280;57291;37.520;15.106;2023-10-19T12:21:07;100799.63;;;24.95;100.00
54556;BME280;57291;37.520;15.106;2023-10-19T12:23:39;100793.28;;;25.02;100.00
54556;BME280;57291;37.520;15.106;2023-10-19T12:26:07;100783.06;;;25.24;100.00
54556;BME280;57291;37.520;15.106;2023-10-19T12:28:42;100784.63;;;25.18;100.00
54556;BME280;57291;37.520;15.106;2023-10-19T12:31:16;100787.81;;;25.27;100.00
54556;BME280;57291;37.520;15.106;2023-10-19T12:33:46;100786.22;;;25.26;100.00
54556;BME280;57291;37.520;15.106;2023-10-19T12:36:13;100775.94;;;25.37;100.00
54556;BME280;57291;37.520;15.106;2023-10-19T12:38:59;100781.91;;;25.54;100.00
54556;BME280;57291;37.520;15.106;2023-10-19T12:41:27;100774.75;;;25.56;100.00
54556;BME280;57291;37.520;15.106;2023-10-19T12:43:56;100779.88;;;25.36;100.00
54556;BME280;57291;37.520;15.106;2023-10-19T12:46:27;100785.06;;;25.41;100.00
54556;BME280;57291;37.520;15.106;2023-10-19T12:48:57;100779.09;;;25.50;100.00
54556;BME280;57291;37.520;15.106;2023-10-19T12:51:25;100787.47;;;25.61;100.00
54556;BME280;57291;37.520;15.106;2023-10-19T12:53:53;100783.09;;;25.45;100.00
54556;BME280;57291;37.520;15.106;2023-10-19T12:56:21;100777.50;;;25.27;100.00
54556;BME280;57291;37.520;15.106;2023-10-19T12:58:52;100771.94;;;25.27;100.00
54556;BME280;57291;37.520;15.106;2023-10-19T13:01:19;100772.38;;;25.47;100.00
54556;BME280;57291;37.520;15.106;2023-10-19T13:03:47;100772.78;;;25.64;100.00